sensor_id;sensor_type;location;lat;lon;timestamp;temperature;humidity
3940;DHT22;1984;48.312;9.244;2022-07-22T00:00:22;16.10;99.90
3940;DHT22;1984;48.312;9.244;2022-07-22T00:02:47;16.20;99.90
3940;DHT22;1984;48.312;9.244;2022-07-22T00:05:13;16.20;99.90
3940;DHT22;1984;48.312;9.244;2022-07-22T00:07:39;16.10;99.90
3940;DHT22;1984;48.312;9.244;2022-07-22T00:10:07;16.10;99.90
3940;DHT22;1984;48.312;9.244;2022-07-22T00:12:32;16.10;99.90
3940;DHT22;1984;48.312;9.244;2022-07-22T00:14:58;16.00;99.90
3940;DHT22;1984;48.312;9.244;2022-07-22T00:17:24;16.00;99.90
3940;DHT22;1984;48.312;9.244;2022-07-22T00:19:49;16.00;99.90
3940;DHT22;1984;48.312;9.244;2022-07-22T00:22:15;16.00;99.90
3940;DHT22;1984;48.312;9.244;2022-07-22T00:24:40;16.00;99.90
3940;DHT22;1984;48.312;9.244;2022-07-22T00:27:06;16.00;99.90
3940;DHT22;1984;48.312;9.244;2022-07-22T00:29:31;16.00;99.90
3940;DHT22;1984;48.312;9.244;2022-07-22T00:31:57;15.90;99.90
3940;DHT22;1984;48.312;9.244;2022-07-22T00:34:22;15.80;99.90
3940;DHT22;1984;48.312;9.244;2022-07-22T00:36:48;15.80;99.90
3940;DHT22;1984;48.312;9.244;2022-07-22T00:39:13;15.70;99.90
3940;DHT22;1984;48.312;9.244;2022-07-22T00:41:40;15.60;99.90
3940;DHT22;1984;48.312;9.244;2022-07-22T00:44:07;15.60;99.90
3940;DHT22;1984;48.312;9.244;2022-07-22T00:46:34;15.60;99.90
3940;DHT22;1984;48.312;9.244;2022-07-22T00:49:01;15.60;99.90
3940;DHT22;1984;48.312;9.244;2022-07-22T00:51:28;15.60;99.90
3940;DHT22;1984;48.312;9.244;2022-07-22T00:53:55;15.60;99.90
3940;DHT22;1984;48.312;9.244;2022-07-22T00:56:22;15.60;99.90
3940;DHT22;1984;48.312;9.244;2022-07-22T00:58:50;15.60;99.90
3940;DHT22;1984;48.312;9.244;2022-07-22T01:01:16;15.50;99.90
3940;DHT22;1984;48.312;9.244;2022-07-22T01:03:42;15.40;99.90
3940;DHT22;1984;48.312;9.244;2022-07-22T01:06:08;15.30;99.90
3940;DHT22;1984;48.312;9.244;2022-07-22T01:08:34;15.30;99.90
3940;DHT22;1984;48.312;9.244;2022-07-22T01:11:10;15.20;99.90
3940;DHT22;1984;48.312;9.244;2022-07-22T01:13:36;15.10;99.90
3940;DHT22;1984;48.312;9.244;2022-07-22T01:16:03;15.20;99.90
3940;DHT22;1984;48.312;9.244;2022-07-22T01:18:29;15.20;99.90
3940;DHT22;1984;48.312;9.244;2022-07-22T01:20:55;15.20;99.90
3940;DHT22;1984;48.312;9.244;2022-07-22T01:23:20;15.20;99.90
3940;DHT22;1984;48.312;9.244;2022-07-22T01:25:46;15.10;99.90
3940;DHT22;1984;48.312;9.244;2022-07-22T01:28:11;15.10;99.90
3940;DHT22;1984;48.312;9.244;2022-07-22T01:30:37;15.10;99.90
3940;DHT22;1984;48.312;9.244;2022-07-22T01:33:03;15.10;99.90
3940;DHT22;1984;48.312;9.244;2022-07-22T01:35:28;15.10;99.90
3940;DHT22;1984;48.312;9.244;2022-07-22T01:37:54;15.10;99.90
3940;DHT22;1984;48.312;9.244;2022-07-22T01:40:19;15.20;99.90
3940;DHT22;1984;48.312;9.244;2022-07-22T01:42:45;15.20;99.90
3940;DHT22;1984;48.312;9.244;2022-07-22T01:45:10;15.10;99.90
3940;DHT22;1984;48.312;9.244;2022-07-22T01:47:36;15.10;99.90
3940;DHT22;1984;48.312;9.244;2022-07-22T01:50:03;15.10;99.90
3940;DHT22;1984;48.312;9.244;2022-07-22T01:52:29;15.00;99.90
3940;DHT22;1984;48.312;9.244;2022-07-22T01:54:54;15.00;99.90
3940;DHT22;1984;48.312;9.244;2022-07-22T01:57:20;14.90;99.90
3940;DHT22;1984;48.312;9.244;2022-07-22T01:59:45;14.90;99.90
3940;DHT22;1984;48.312;9.244;2022-07-22T02:02:11;15.00;99.90
3940;DHT22;1984;48.312;9.244;2022-07-22T02:04:36;15.00;99.90
3940;DHT22;1984;48.312;9.244;2022-07-22T02:07:02;15.00;99.90
3940;DHT22;1984;48.312;9.244;2022-07-22T02:09:27;14.90;99.90
3940;DHT22;1984;48.312;9.244;2022-07-22T02:11:53;14.80;99.90
3940;DHT22;1984;48.312;9.244;2022-07-22T02:14:18;14.70;99.90
3940;DHT22;1984;48.312;9.244;2022-07-22T02:16:44;14.80;99.90
3940;DHT22;1984;48.312;9.244;2022-07-22T02:19:09;14.80;99.90
3940;DHT22;1984;48.312;9.244;2022-07-22T02:21:35;14.70;99.90
3940;DHT22;1984;48.312;9.244;2022-07-22T02:24:00;14.70;99.90
3940;DHT22;1984;48.312;9.244;2022-07-22T02:26:26;14.60;99.90
3940;DHT22;1984;48.312;9.244;2022-07-22T02:28:51;14.60;99.90
3940;DHT22;1984;48.312;9.244;2022-07-22T02:31:17;14.70;99.90
3940;DHT22;1984;48.312;9.244;2022-07-22T02:33:43;14.60;99.90
3940;DHT22;1984;48.312;9.244;2022-07-22T02:36:08;14.60;99.90
3940;DHT22;1984;48.312;9.244;2022-07-22T02:38:34;14.60;99.90
3940;DHT22;1984;48.312;9.244;2022-07-22T02:40:59;14.50;99.90
3940;DHT22;1984;48.312;9.244;2022-07-22T02:43:25;14.50;99.90
3940;DHT22;1984;48.312;9.244;2022-07-22T02:45:50;14.50;99.90
3940;DHT22;1984;48.312;9.244;2022-07-22T02:48:16;14.50;99.90
3940;DHT22;1984;48.312;9.244;2022-07-22T02:50:46;14.50;99.90
3940;DHT22;1984;48.312;9.244;2022-07-22T02:53:12;14.40;99.90
3940;DHT22;1984;48.312;9.244;2022-07-22T02:55:38;14.40;99.90
3940;DHT22;1984;48.312;9.244;2022-07-22T02:58:04;14.40;99.90
3940;DHT22;1984;48.312;9.244;2022-07-22T03:00:30;14.30;99.90
3940;DHT22;1984;48.312;9.244;2022-07-22T03:02:56;14.30;99.90
3940;DHT22;1984;48.312;9.244;2022-07-22T03:05:21;14.30;99.90
3940;DHT22;1984;48.312;9.244;2022-07-22T03:07:47;14.30;99.90
3940;DHT22;1984;48.312;9.244;2022-07-22T03:10:13;14.20;99.90
3940;DHT22;1984;48.312;9.244;2022-07-22T03:12:39;14.20;99.90
3940;DHT22;1984;48.312;9.244;2022-07-22T03:15:05;14.20;99.90
3940;DHT22;1984;48.312;9.244;2022-07-22T03:17:35;14.20;99.90
3940;DHT22;1984;48.312;9.244;2022-07-22T03:20:06;14.20;99.90
3940;DHT22;1984;48.312;9.244;2022-07-22T03:22:32;14.20;99.90
3940;DHT22;1984;48.312;9.244;2022-07-22T03:24:58;14.30;99.90
3940;DHT22;1984;48.312;9.244;2022-07-22T03:27:23;14.20;99.90
3940;DHT22;1984;48.312;9.244;2022-07-22T03:29:49;14.20;99.90
3940;DHT22;1984;48.312;9.244;2022-07-22T03:32:14;14.10;99.90
3940;DHT22;1984;48.312;9.244;2022-07-22T03:34:40;14.10;99.90
3940;DHT22;1984;48.312;9.244;2022-07-22T03:37:05;14.10;99.90
3940;DHT22;1984;48.312;9.244;2022-07-22T03:39:31;14.00;99.90
3940;DHT22;1984;48.312;9.244;2022-07-22T03:41:57;14.00;99.90
3940;DHT22;1984;48.312;9.244;2022-07-22T03:44:22;14.00;99.90
3940;DHT22;1984;48.312;9.244;2022-07-22T03:46:48;14.00;99.90
3940;DHT22;1984;48.312;9.244;2022-07-22T03:49:13;14.00;99.90
3940;DHT22;1984;48.312;9.244;2022-07-22T03:51:39;13.90;99.90
3940;DHT22;1984;48.312;9.244;2022-07-22T03:54:04;13.90;99.90
3940;DHT22;1984;48.312;9.244;2022-07-22T03:56:31;13.90;99.90
3940;DHT22;1984;48.312;9.244;2022-07-22T03:58:56;13.80;99.90
3940;DHT22;1984;48.312;9.244;2022-07-22T04:01:22;13.80;99.90
3940;DHT22;1984;48.312;9.244;2022-07-22T04:03:47;13.80;99.90
3940;DHT22;1984;48.312;9.244;2022-07-22T04:06:14;13.80;99.90
3940;DHT22;1984;48.312;9.244;2022-07-22T04:08:40;13.80;99.90
3940;DHT22;1984;48.312;9.244;2022-07-22T04:11:05;13.80;99.90
3940;DHT22;1984;48.312;9.244;2022-07-22T04:13:31;13.80;99.90
3940;DHT22;1984;48.312;9.244;2022-07-22T04:15:57;13.80;99.90
3940;DHT22;1984;48.312;9.244;2022-07-22T04:18:23;13.80;99.90
3940;DHT22;1984;48.312;9.244;2022-07-22T04:20:48;13.80;99.90
3940;DHT22;1984;48.312;9.244;2022-07-22T04:23:14;13.90;99.90
3940;DHT22;1984;48.312;9.244;2022-07-22T04:25:39;14.00;99.90
3940;DHT22;1984;48.312;9.244;2022-07-22T04:28:06;14.00;99.90
3940;DHT22;1984;48.312;9.244;2022-07-22T04:30:31;14.00;99.90
3940;DHT22;1984;48.312;9.244;2022-07-22T04:32:57;14.00;99.90
3940;DHT22;1984;48.312;9.244;2022-07-22T04:35:23;14.00;99.90
3940;DHT22;1984;48.312;9.244;2022-07-22T04:37:49;14.00;99.90
3940;DHT22;1984;48.312;9.244;2022-07-22T04:40:14;14.00;99.90
3940;DHT22;1984;48.312;9.244;2022-07-22T04:42:40;14.10;99.90
3940;DHT22;1984;48.312;9.244;2022-07-22T04:45:05;14.20;99.90
3940;DHT22;1984;48.312;9.244;2022-07-22T04:47:31;14.20;99.90
3940;DHT22;1984;48.312;9.244;2022-07-22T04:49:56;14.20;99.90
3940;DHT22;1984;48.312;9.244;2022-07-22T04:52:22;14.20;99.90
3940;DHT22;1984;48.312;9.244;2022-07-22T04:54:48;14.20;99.90
3940;DHT22;1984;48.312;9.244;2022-07-22T04:57:13;14.30;99.90
3940;DHT22;1984;48.312;9.244;2022-07-22T04:59:39;14.40;99.90
3940;DHT22;1984;48.312;9.244;2022-07-22T05:02:04;14.40;99.90
3940;DHT22;1984;48.312;9.244;2022-07-22T05:04:30;14.50;99.90
3940;DHT22;1984;48.312;9.244;2022-07-22T05:06:55;14.60;99.90
3940;DHT22;1984;48.312;9.244;2022-07-22T05:09:21;14.60;99.90
3940;DHT22;1984;48.312;9.244;2022-07-22T05:11:46;14.80;99.90
3940;DHT22;1984;48.312;9.244;2022-07-22T05:14:12;14.80;99.90
3940;DHT22;1984;48.312;9.244;2022-07-22T05:16:37;14.90;99.90
3940;DHT22;1984;48.312;9.244;2022-07-22T05:19:04;14.90;99.90
3940;DHT22;1984;48.312;9.244;2022-07-22T05:21:30;15.00;99.90
3940;DHT22;1984;48.312;9.244;2022-07-22T05:23:55;15.00;99.90
3940;DHT22;1984;48.312;9.244;2022-07-22T05:26:21;15.00;99.90
3940;DHT22;1984;48.312;9.244;2022-07-22T05:28:47;15.00;99.90
3940;DHT22;1984;48.312;9.244;2022-07-22T05:31:12;15.00;99.90
3940;DHT22;1984;48.312;9.244;2022-07-22T05:33:38;15.00;99.90
3940;DHT22;1984;48.312;9.244;2022-07-22T05:36:04;15.10;99.90
3940;DHT22;1984;48.312;9.244;2022-07-22T05:38:33;15.10;99.90
3940;DHT22;1984;48.312;9.244;2022-07-22T05:40:58;15.10;99.90
3940;DHT22;1984;48.312;9.244;2022-07-22T05:43:24;15.20;99.90
3940;DHT22;1984;48.312;9.244;2022-07-22T05:45:49;15.30;99.90
3940;DHT22;1984;48.312;9.244;2022-07-22T05:48:15;15.50;99.90
3940;DHT22;1984;48.312;9.244;2022-07-22T05:50:40;15.70;99.90
3940;DHT22;1984;48.312;9.244;2022-07-22T05:53:06;15.80;99.90
3940;DHT22;1984;48.312;9.244;2022-07-22T05:55:31;15.90;99.90
3940;DHT22;1984;48.312;9.244;2022-07-22T05:57:57;16.00;99.90
3940;DHT22;1984;48.312;9.244;2022-07-22T06:00:22;16.20;99.90
3940;DHT22;1984;48.312;9.244;2022-07-22T06:02:48;16.40;99.90
3940;DHT22;1984;48.312;9.244;2022-07-22T06:05:13;16.60;99.90
3940;DHT22;1984;48.312;9.244;2022-07-22T06:07:39;16.70;99.90
3940;DHT22;1984;48.312;9.244;2022-07-22T06:10:05;16.90;99.90
3940;DHT22;1984;48.312;9.244;2022-07-22T06:12:30;17.10;99.90
3940;DHT22;1984;48.312;9.244;2022-07-22T06:14:56;17.20;99.90
3940;DHT22;1984;48.312;9.244;2022-07-22T06:17:21;17.30;99.90
3940;DHT22;1984;48.312;9.244;2022-07-22T06:19:47;17.40;99.90
3940;DHT22;1984;48.312;9.244;2022-07-22T06:22:13;17.60;99.90
3940;DHT22;1984;48.312;9.244;2022-07-22T06:24:38;17.80;99.90
3940;DHT22;1984;48.312;9.244;2022-07-22T06:27:04;18.00;99.90
3940;DHT22;1984;48.312;9.244;2022-07-22T06:29:29;18.30;99.90
3940;DHT22;1984;48.312;9.244;2022-07-22T06:31:55;18.60;99.90
3940;DHT22;1984;48.312;9.244;2022-07-22T06:34:20;18.70;99.90
3940;DHT22;1984;48.312;9.244;2022-07-22T06:36:46;19.00;99.90
3940;DHT22;1984;48.312;9.244;2022-07-22T06:39:11;19.20;99.90
3940;DHT22;1984;48.312;9.244;2022-07-22T06:41:37;19.60;99.90
3940;DHT22;1984;48.312;9.244;2022-07-22T06:44:03;19.80;99.90
3940;DHT22;1984;48.312;9.244;2022-07-22T06:46:29;20.10;99.90
3940;DHT22;1984;48.312;9.244;2022-07-22T06:48:54;20.40;99.90
3940;DHT22;1984;48.312;9.244;2022-07-22T06:51:20;20.70;99.90
3940;DHT22;1984;48.312;9.244;2022-07-22T06:53:45;21.10;99.90
3940;DHT22;1984;48.312;9.244;2022-07-22T06:56:12;21.60;99.90
3940;DHT22;1984;48.312;9.244;2022-07-22T06:58:37;22.10;99.90
3940;DHT22;1984;48.312;9.244;2022-07-22T07:01:03;22.60;99.90
3940;DHT22;1984;48.312;9.244;2022-07-22T07:03:28;23.30;99.90
3940;DHT22;1984;48.312;9.244;2022-07-22T07:05:54;23.90;99.90
3940;DHT22;1984;48.312;9.244;2022-07-22T07:08:19;24.50;99.90
3940;DHT22;1984;48.312;9.244;2022-07-22T07:10:45;25.00;99.90
3940;DHT22;1984;48.312;9.244;2022-07-22T07:13:10;25.20;99.90
3940;DHT22;1984;48.312;9.244;2022-07-22T07:15:36;25.40;99.90
3940;DHT22;1984;48.312;9.244;2022-07-22T07:18:02;25.60;99.90
3940;DHT22;1984;48.312;9.244;2022-07-22T07:20:28;25.90;99.90
3940;DHT22;1984;48.312;9.244;2022-07-22T07:22:53;26.40;99.90
3940;DHT22;1984;48.312;9.244;2022-07-22T07:25:19;27.10;99.90
3940;DHT22;1984;48.312;9.244;2022-07-22T07:27:44;27.50;99.90
3940;DHT22;1984;48.312;9.244;2022-07-22T07:30:10;28.10;98.40
3940;DHT22;1984;48.312;9.244;2022-07-22T07:32:37;28.50;98.60
3940;DHT22;1984;48.312;9.244;2022-07-22T07:35:04;28.90;96.70
3940;DHT22;1984;48.312;9.244;2022-07-22T07:37:30;29.00;96.50
3940;DHT22;1984;48.312;9.244;2022-07-22T07:39:56;29.50;95.70
3940;DHT22;1984;48.312;9.244;2022-07-22T07:42:22;29.80;94.00
3940;DHT22;1984;48.312;9.244;2022-07-22T07:44:48;29.70;93.40
3940;DHT22;1984;48.312;9.244;2022-07-22T07:47:14;30.10;92.90
3940;DHT22;1984;48.312;9.244;2022-07-22T07:49:43;30.10;92.50
3940;DHT22;1984;48.312;9.244;2022-07-22T07:52:10;30.00;91.80
3940;DHT22;1984;48.312;9.244;2022-07-22T07:54:35;29.80;92.20
3940;DHT22;1984;48.312;9.244;2022-07-22T07:57:01;30.00;91.30
3940;DHT22;1984;48.312;9.244;2022-07-22T07:59:27;30.30;91.20
3940;DHT22;1984;48.312;9.244;2022-07-22T08:01:52;30.90;90.60
3940;DHT22;1984;48.312;9.244;2022-07-22T08:04:18;30.70;89.40
3940;DHT22;1984;48.312;9.244;2022-07-22T08:06:43;30.50;89.60
3940;DHT22;1984;48.312;9.244;2022-07-22T08:09:09;30.60;87.90
3940;DHT22;1984;48.312;9.244;2022-07-22T08:11:35;30.30;88.90
3940;DHT22;1984;48.312;9.244;2022-07-22T08:14:01;30.70;89.60
3940;DHT22;1984;48.312;9.244;2022-07-22T08:16:26;31.20;88.40
3940;DHT22;1984;48.312;9.244;2022-07-22T08:18:52;31.60;88.80
3940;DHT22;1984;48.312;9.244;2022-07-22T08:21:18;32.30;85.90
3940;DHT22;1984;48.312;9.244;2022-07-22T08:23:44;32.60;83.80
3940;DHT22;1984;48.312;9.244;2022-07-22T08:26:09;33.00;81.80
3940;DHT22;1984;48.312;9.244;2022-07-22T08:28:35;33.10;80.80
3940;DHT22;1984;48.312;9.244;2022-07-22T08:31:00;33.40;79.10
3940;DHT22;1984;48.312;9.244;2022-07-22T08:33:26;32.90;80.80
3940;DHT22;1984;48.312;9.244;2022-07-22T08:35:51;32.80;79.10
3940;DHT22;1984;48.312;9.244;2022-07-22T08:38:17;32.50;80.70
3940;DHT22;1984;48.312;9.244;2022-07-22T08:40:43;32.40;79.40
3940;DHT22;1984;48.312;9.244;2022-07-22T08:43:08;32.60;80.40
3940;DHT22;1984;48.312;9.244;2022-07-22T08:45:34;33.00;77.60
3940;DHT22;1984;48.312;9.244;2022-07-22T08:48:00;32.90;77.40
3940;DHT22;1984;48.312;9.244;2022-07-22T08:50:29;32.60;78.80
3940;DHT22;1984;48.312;9.244;2022-07-22T08:52:55;32.70;77.60
3940;DHT22;1984;48.312;9.244;2022-07-22T08:55:21;32.70;78.70
3940;DHT22;1984;48.312;9.244;2022-07-22T08:57:47;33.00;76.60
3940;DHT22;1984;48.312;9.244;2022-07-22T09:00:16;32.90;77.60
3940;DHT22;1984;48.312;9.244;2022-07-22T09:02:43;33.20;76.80
3940;DHT22;1984;48.312;9.244;2022-07-22T09:05:11;33.00;75.90
3940;DHT22;1984;48.312;9.244;2022-07-22T09:07:40;33.40;76.40
3940;DHT22;1984;48.312;9.244;2022-07-22T09:10:11;34.30;72.70
3940;DHT22;1984;48.312;9.244;2022-07-22T09:12:58;33.90;73.50
3940;DHT22;1984;48.312;9.244;2022-07-22T09:15:33;34.30;73.20
3940;DHT22;1984;48.312;9.244;2022-07-22T09:18:01;34.50;73.50
3940;DHT22;1984;48.312;9.244;2022-07-22T09:20:27;34.70;72.80
3940;DHT22;1984;48.312;9.244;2022-07-22T09:22:53;35.00;72.00
3940;DHT22;1984;48.312;9.244;2022-07-22T09:25:36;35.90;69.30
3940;DHT22;1984;48.312;9.244;2022-07-22T09:30:30;35.80;68.90
3940;DHT22;1984;48.312;9.244;2022-07-22T09:32:56;35.50;68.70
3940;DHT22;1984;48.312;9.244;2022-07-22T09:35:22;35.10;68.60
3940;DHT22;1984;48.312;9.244;2022-07-22T09:40:16;36.10;69.90
3940;DHT22;1984;48.312;9.244;2022-07-22T09:42:51;36.70;67.70
3940;DHT22;1984;48.312;9.244;2022-07-22T09:45:18;36.80;65.40
3940;DHT22;1984;48.312;9.244;2022-07-22T09:47:44;36.90;64.70
3940;DHT22;1984;48.312;9.244;2022-07-22T09:50:21;36.90;64.70
3940;DHT22;1984;48.312;9.244;2022-07-22T09:52:48;36.90;64.40
3940;DHT22;1984;48.312;9.244;2022-07-22T09:55:16;37.10;63.80
3940;DHT22;1984;48.312;9.244;2022-07-22T09:57:43;37.30;61.80
3940;DHT22;1984;48.312;9.244;2022-07-22T10:00:10;37.40;62.60
3940;DHT22;1984;48.312;9.244;2022-07-22T10:02:51;37.40;61.30
3940;DHT22;1984;48.312;9.244;2022-07-22T10:05:22;37.90;59.40
3940;DHT22;1984;48.312;9.244;2022-07-22T10:07:48;38.40;59.80
3940;DHT22;1984;48.312;9.244;2022-07-22T10:10:17;38.60;58.10
3940;DHT22;1984;48.312;9.244;2022-07-22T10:12:43;38.80;57.80
3940;DHT22;1984;48.312;9.244;2022-07-22T10:15:10;39.40;58.20
3940;DHT22;1984;48.312;9.244;2022-07-22T10:17:48;39.00;55.80
3940;DHT22;1984;48.312;9.244;2022-07-22T10:20:21;39.00;58.00
3940;DHT22;1984;48.312;9.244;2022-07-22T10:22:49;39.10;56.70
3940;DHT22;1984;48.312;9.244;2022-07-22T10:25:15;39.50;57.30
3940;DHT22;1984;48.312;9.244;2022-07-22T10:27:52;38.90;55.10
3940;DHT22;1984;48.312;9.244;2022-07-22T10:30:20;38.90;55.70
3940;DHT22;1984;48.312;9.244;2022-07-22T10:33:21;39.50;55.80
3940;DHT22;1984;48.312;9.244;2022-07-22T10:38:25;38.20;53.90
3940;DHT22;1984;48.312;9.244;2022-07-22T10:41:04;37.80;56.30
3940;DHT22;1984;48.312;9.244;2022-07-22T10:46:01;37.20;59.40
3940;DHT22;1984;48.312;9.244;2022-07-22T10:58:51;35.90;57.50
3940;DHT22;1984;48.312;9.244;2022-07-22T11:01:19;36.10;56.80
3940;DHT22;1984;48.312;9.244;2022-07-22T11:03:46;36.70;56.50
3940;DHT22;1984;48.312;9.244;2022-07-22T11:06:17;36.90;56.60
3940;DHT22;1984;48.312;9.244;2022-07-22T11:08:44;37.30;55.30
3940;DHT22;1984;48.312;9.244;2022-07-22T11:11:10;37.10;55.60
3940;DHT22;1984;48.312;9.244;2022-07-22T11:13:40;36.80;54.10
3940;DHT22;1984;48.312;9.244;2022-07-22T11:16:25;36.20;55.10
3940;DHT22;1984;48.312;9.244;2022-07-22T11:18:56;35.20;56.20
3940;DHT22;1984;48.312;9.244;2022-07-22T11:21:24;34.00;57.80
3940;DHT22;1984;48.312;9.244;2022-07-22T11:23:52;33.10;59.10
3940;DHT22;1984;48.312;9.244;2022-07-22T11:26:24;32.90;61.50
3940;DHT22;1984;48.312;9.244;2022-07-22T11:28:49;33.10;59.70
3940;DHT22;1984;48.312;9.244;2022-07-22T11:31:17;33.20;61.10
3940;DHT22;1984;48.312;9.244;2022-07-22T11:33:46;33.20;60.60
3940;DHT22;1984;48.312;9.244;2022-07-22T11:36:12;32.70;61.60
3940;DHT22;1984;48.312;9.244;2022-07-22T11:38:49;32.30;60.90
3940;DHT22;1984;48.312;9.244;2022-07-22T11:41:16;32.10;62.00
3940;DHT22;1984;48.312;9.244;2022-07-22T11:43:44;32.00;63.60
3940;DHT22;1984;48.312;9.244;2022-07-22T11:46:11;31.90;65.30
3940;DHT22;1984;48.312;9.244;2022-07-22T11:48:37;31.90;64.20
3940;DHT22;1984;48.312;9.244;2022-07-22T11:51:05;31.80;64.90
3940;DHT22;1984;48.312;9.244;2022-07-22T11:53:30;31.80;64.00
3940;DHT22;1984;48.312;9.244;2022-07-22T11:55:57;31.60;65.60
3940;DHT22;1984;48.312;9.244;2022-07-22T11:58:43;31.20;66.60
3940;DHT22;1984;48.312;9.244;2022-07-22T12:01:11;31.10;64.70
3940;DHT22;1984;48.312;9.244;2022-07-22T12:03:38;31.00;66.60
3940;DHT22;1984;48.312;9.244;2022-07-22T12:06:07;31.00;67.90
3940;DHT22;1984;48.312;9.244;2022-07-22T12:08:45;31.10;68.80
3940;DHT22;1984;48.312;9.244;2022-07-22T12:11:12;31.10;65.60
3940;DHT22;1984;48.312;9.244;2022-07-22T12:13:46;31.30;66.30
3940;DHT22;1984;48.312;9.244;2022-07-22T12:18:54;30.90;65.50
3940;DHT22;1984;48.312;9.244;2022-07-22T12:21:19;30.50;66.50
3940;DHT22;1984;48.312;9.244;2022-07-22T12:24:11;30.40;68.00
3940;DHT22;1984;48.312;9.244;2022-07-22T12:26:48;30.30;66.60
3940;DHT22;1984;48.312;9.244;2022-07-22T12:29:19;30.30;70.10
3940;DHT22;1984;48.312;9.244;2022-07-22T12:31:49;30.10;65.50
3940;DHT22;1984;48.312;9.244;2022-07-22T12:34:16;30.10;66.10
3940;DHT22;1984;48.312;9.244;2022-07-22T12:36:46;30.20;67.00
3940;DHT22;1984;48.312;9.244;2022-07-22T12:39:17;30.10;66.40
3940;DHT22;1984;48.312;9.244;2022-07-22T12:41:50;30.10;67.20
3940;DHT22;1984;48.312;9.244;2022-07-22T12:44:17;29.90;66.60
3940;DHT22;1984;48.312;9.244;2022-07-22T12:46:47;30.00;67.20
3940;DHT22;1984;48.312;9.244;2022-07-22T12:49:15;30.00;68.20
3940;DHT22;1984;48.312;9.244;2022-07-22T12:51:42;30.00;66.90
3940;DHT22;1984;48.312;9.244;2022-07-22T12:54:07;30.10;65.10
3940;DHT22;1984;48.312;9.244;2022-07-22T12:56:33;30.10;65.40
3940;DHT22;1984;48.312;9.244;2022-07-22T12:58:59;30.10;68.40
3940;DHT22;1984;48.312;9.244;2022-07-22T13:01:25;30.10;70.40
3940;DHT22;1984;48.312;9.244;2022-07-22T13:03:51;30.10;68.40
3940;DHT22;1984;48.312;9.244;2022-07-22T13:06:16;30.20;66.30
3940;DHT22;1984;48.312;9.244;2022-07-22T13:08:42;30.00;66.50
3940;DHT22;1984;48.312;9.244;2022-07-22T13:11:07;30.10;67.20
3940;DHT22;1984;48.312;9.244;2022-07-22T13:13:33;30.00;66.20
3940;DHT22;1984;48.312;9.244;2022-07-22T13:15:58;29.90;67.70
3940;DHT22;1984;48.312;9.244;2022-07-22T13:18:24;29.80;66.20
3940;DHT22;1984;48.312;9.244;2022-07-22T13:20:49;29.80;68.10
3940;DHT22;1984;48.312;9.244;2022-07-22T13:23:15;30.00;68.30
3940;DHT22;1984;48.312;9.244;2022-07-22T13:25:40;29.90;66.80
3940;DHT22;1984;48.312;9.244;2022-07-22T13:28:06;29.90;68.00
3940;DHT22;1984;48.312;9.244;2022-07-22T13:30:31;29.80;68.70
3940;DHT22;1984;48.312;9.244;2022-07-22T13:32:57;29.80;68.60
3940;DHT22;1984;48.312;9.244;2022-07-22T13:35:23;29.80;67.90
3940;DHT22;1984;48.312;9.244;2022-07-22T13:37:48;29.90;66.70
3940;DHT22;1984;48.312;9.244;2022-07-22T13:40:15;30.00;66.80
3940;DHT22;1984;48.312;9.244;2022-07-22T13:42:41;30.10;66.70
3940;DHT22;1984;48.312;9.244;2022-07-22T13:45:07;30.20;65.80
3940;DHT22;1984;48.312;9.244;2022-07-22T13:47:35;30.20;64.60
3940;DHT22;1984;48.312;9.244;2022-07-22T13:50:01;30.00;64.90
3940;DHT22;1984;48.312;9.244;2022-07-22T13:52:26;30.00;67.00
3940;DHT22;1984;48.312;9.244;2022-07-22T13:54:52;30.00;64.30
3940;DHT22;1984;48.312;9.244;2022-07-22T13:57:17;30.00;67.00
3940;DHT22;1984;48.312;9.244;2022-07-22T13:59:43;30.10;65.40
3940;DHT22;1984;48.312;9.244;2022-07-22T14:02:09;30.20;64.50
3940;DHT22;1984;48.312;9.244;2022-07-22T14:04:35;30.30;66.50
3940;DHT22;1984;48.312;9.244;2022-07-22T14:07:01;30.50;66.70
3940;DHT22;1984;48.312;9.244;2022-07-22T14:09:26;30.50;66.00
3940;DHT22;1984;48.312;9.244;2022-07-22T14:11:52;30.50;65.60
3940;DHT22;1984;48.312;9.244;2022-07-22T14:14:17;30.40;66.30
3940;DHT22;1984;48.312;9.244;2022-07-22T14:16:43;30.50;64.50
3940;DHT22;1984;48.312;9.244;2022-07-22T14:19:11;30.40;63.50
3940;DHT22;1984;48.312;9.244;2022-07-22T14:21:38;30.20;65.00
3940;DHT22;1984;48.312;9.244;2022-07-22T14:24:05;30.20;66.70
3940;DHT22;1984;48.312;9.244;2022-07-22T14:26:32;30.40;63.10
3940;DHT22;1984;48.312;9.244;2022-07-22T14:28:59;30.50;63.60
3940;DHT22;1984;48.312;9.244;2022-07-22T14:31:25;30.50;61.40
3940;DHT22;1984;48.312;9.244;2022-07-22T14:33:50;30.60;61.50
3940;DHT22;1984;48.312;9.244;2022-07-22T14:36:16;30.50;58.80
3940;DHT22;1984;48.312;9.244;2022-07-22T14:38:42;30.60;60.60
3940;DHT22;1984;48.312;9.244;2022-07-22T14:41:08;30.60;60.90
3940;DHT22;1984;48.312;9.244;2022-07-22T14:43:34;30.70;59.50
3940;DHT22;1984;48.312;9.244;2022-07-22T14:46:01;30.80;59.70
3940;DHT22;1984;48.312;9.244;2022-07-22T14:48:27;30.80;59.20
3940;DHT22;1984;48.312;9.244;2022-07-22T14:50:53;30.90;59.50
3940;DHT22;1984;48.312;9.244;2022-07-22T14:53:19;31.00;58.60
3940;DHT22;1984;48.312;9.244;2022-07-22T14:55:44;31.00;59.00
3940;DHT22;1984;48.312;9.244;2022-07-22T14:58:10;31.10;61.10
3940;DHT22;1984;48.312;9.244;2022-07-22T15:00:35;31.00;59.30
3940;DHT22;1984;48.312;9.244;2022-07-22T15:03:01;31.00;59.40
3940;DHT22;1984;48.312;9.244;2022-07-22T15:05:26;30.80;58.10
3940;DHT22;1984;48.312;9.244;2022-07-22T15:07:52;30.70;58.20
3940;DHT22;1984;48.312;9.244;2022-07-22T15:10:18;30.80;59.80
3940;DHT22;1984;48.312;9.244;2022-07-22T15:12:43;30.90;60.80
3940;DHT22;1984;48.312;9.244;2022-07-22T15:15:09;30.90;58.50
3940;DHT22;1984;48.312;9.244;2022-07-22T15:17:36;30.90;58.80
3940;DHT22;1984;48.312;9.244;2022-07-22T15:20:03;30.80;59.60
3940;DHT22;1984;48.312;9.244;2022-07-22T15:22:29;30.80;61.00
3940;DHT22;1984;48.312;9.244;2022-07-22T15:24:55;30.90;59.90
3940;DHT22;1984;48.312;9.244;2022-07-22T15:27:21;30.80;60.50
3940;DHT22;1984;48.312;9.244;2022-07-22T15:29:46;30.70;60.40
3940;DHT22;1984;48.312;9.244;2022-07-22T15:32:16;30.60;60.00
3940;DHT22;1984;48.312;9.244;2022-07-22T15:34:42;30.50;60.10
3940;DHT22;1984;48.312;9.244;2022-07-22T15:37:08;30.40;60.10
3940;DHT22;1984;48.312;9.244;2022-07-22T15:39:33;30.30;60.50
3940;DHT22;1984;48.312;9.244;2022-07-22T15:41:59;30.20;60.90
3940;DHT22;1984;48.312;9.244;2022-07-22T15:44:25;30.00;61.60
3940;DHT22;1984;48.312;9.244;2022-07-22T15:46:50;30.00;60.50
3940;DHT22;1984;48.312;9.244;2022-07-22T15:49:16;30.00;61.80
3940;DHT22;1984;48.312;9.244;2022-07-22T15:51:42;30.10;61.80
3940;DHT22;1984;48.312;9.244;2022-07-22T15:54:07;30.20;61.90
3940;DHT22;1984;48.312;9.244;2022-07-22T15:56:33;30.20;61.10
3940;DHT22;1984;48.312;9.244;2022-07-22T15:58:59;30.20;62.60
3940;DHT22;1984;48.312;9.244;2022-07-22T16:01:43;30.20;60.60
3940;DHT22;1984;48.312;9.244;2022-07-22T16:04:09;30.20;61.50
3940;DHT22;1984;48.312;9.244;2022-07-22T16:06:35;30.30;62.60
3940;DHT22;1984;48.312;9.244;2022-07-22T16:09:00;30.20;62.20
3940;DHT22;1984;48.312;9.244;2022-07-22T16:11:26;30.10;61.60
3940;DHT22;1984;48.312;9.244;2022-07-22T16:13:52;30.00;63.40
3940;DHT22;1984;48.312;9.244;2022-07-22T16:16:18;30.00;61.50
3940;DHT22;1984;48.312;9.244;2022-07-22T16:18:44;29.90;61.30
3940;DHT22;1984;48.312;9.244;2022-07-22T16:21:09;29.90;61.20